Aviation Digital Data Service (ADDS)

Output produced by METARs form (0429 UTC 02 August 2014)
found at http://aviationweather.gov/adds/metars/
 
KRUT 012324Z 0200/0224 14006KT P6SM FEW050 SCT100 BKN200 
     FM021500 17007KT P6SM VCSH SCT040 SCT150 AMD LTD TO CLD VIS AND WIND